Hopa, Turkey

6:34 AM EEST on August 30, 2015 (GMT +0300)
Batumi | | Change Station
CLOSE
Current Station
Airport
Location: Batumi,
Elevation: 105 ft
Nearby Weather Stations

Elev 105 ft 41.63 °N, 41.60 °E | Updated 4 minutes ago

Partly Cloudy
Partly Cloudy
70 °F
Feels Like 70 °F
N
9
Wind Variable Wind from ESE

Today
High -- | Low -- °F
--% Chance of Precip.
Yesterday
High -- | Low -- °F
Precip. -- in
5:37 AM 6:51 PM
Full, 100% visible
Pressure 30.12 in
Visibility 6.2 miles
Clouds Few 2800 ft
Dew Point 66 °F
Humidity 88%
Rainfall 0.00 in
Snow Depth Not available.
UV 0 out of 12
Pollen Not available.
Air Quality Not available.
Flu Activity Not available.
METAR UGSB 300330Z 12008KT 9999 FEW028 21/19 Q1020 R13/CLRD70 NOSIG
Pressure 30.12 in
Visibility 6.2 miles
Clouds Few 2800 ft
Dew Point 66 °F
Humidity 88%
Rainfall 0.00 in
Snow Depth Not available.
UV 0 out of 12
Pollen Not available.
Air Quality Not available.
Flu Activity Not available.
METAR UGSB 300330Z 12008KT 9999 FEW028 21/19 Q1020 R13/CLRD70 NOSIG

10-Day Weather Forecast

×

Almanac

Astronomy

Aug. 30, 2015 Rise Set
Actual Time
Civil Twilight
Nautical Twilight
Astronomical Twilight
Moon
Length of Visible Light
Length of Day
Tomorrow will be .
, % of the Moon is Illuminated

Today's Extremes

Country Highs Country Lows

Community

WunderPhotos

Upload Photos

1,850,870 photos uploaded!

WunderBlogs® & News

Nearby

Air Quality

  Air Quality AQ Index Pollutant
Not available.

Snow Depth

Station Depth Elevation

Earthquake Activity

City Distance Mag. Time & Date
Minimum magnitude displayed is 2.5.

Coastal Water Temperatures

Place Temperature

Stations

Nearby Weather Stations

Station Location Temp. Windchill Dew Point Humidity Wind Precip. Elev Updated Type